sensor_id;sensor_type;location;lat;lon;timestamp;pressure;altitude;pressure_sealevel;temperature;humidity
61136;BME280;47021;51.340;12.432;2023-04-06T00:03:54;100624.78;;;5.93;55.13
61136;BME280;47021;51.340;12.432;2023-04-06T00:06:19;100622.84;;;5.97;54.86
61136;BME280;47021;51.340;12.432;2023-04-06T00:08:50;100616.66;;;6.29;54.05
61136;BME280;47021;51.340;12.432;2023-04-06T00:11:22;100626.69;;;6.35;54.02
61136;BME280;47021;51.340;12.432;2023-04-06T00:13:47;100617.59;;;6.28;54.17
61136;BME280;47021;51.340;12.432;2023-04-06T00:16:12;100623.91;;;6.38;53.88
61136;BME280;47021;51.340;12.432;2023-04-06T00:18:37;100624.13;;;6.49;53.37
61136;BME280;47021;51.340;12.432;2023-04-06T00:21:03;100622.31;;;6.35;53.83
61136;BME280;47021;51.340;12.432;2023-04-06T00:23:35;100612.50;;;6.70;53.14
61136;BME280;47021;51.340;12.432;2023-04-06T00:26:00;100619.91;;;6.76;53.28
61136;BME280;47021;51.340;12.432;2023-04-06T00:28:38;100612.13;;;6.90;52.77
61136;BME280;47021;51.340;12.432;2023-04-06T00:31:10;100618.41;;;6.72;53.00
61136;BME280;47021;51.340;12.432;2023-04-06T00:33:38;100614.00;;;6.88;53.05
61136;BME280;47021;51.340;12.432;2023-04-06T00:36:11;100608.63;;;6.91;52.83
61136;BME280;47021;51.340;12.432;2023-04-06T00:38:36;100612.41;;;7.00;52.46
61136;BME280;47021;51.340;12.432;2023-04-06T00:41:03;100612.59;;;6.97;53.11
61136;BME280;47021;51.340;12.432;2023-04-06T00:43:39;100615.19;;;6.69;53.52
61136;BME280;47021;51.340;12.432;2023-04-06T00:46:11;100608.03;;;6.72;53.52
61136;BME280;47021;51.340;12.432;2023-04-06T00:48:38;100602.69;;;6.75;53.70
61136;BME280;47021;51.340;12.432;2023-04-06T00:51:03;100603.88;;;6.84;53.96
61136;BME280;47021;51.340;12.432;2023-04-06T00:56:13;100606.88;;;6.92;53.92
61136;BME280;47021;51.340;12.432;2023-04-06T01:01:23;100594.97;;;7.02;53.82
61136;BME280;47021;51.340;12.432;2023-04-06T01:03:56;100594.91;;;6.89;54.27
61136;BME280;47021;51.340;12.432;2023-04-06T01:09:05;100587.56;;;6.68;55.16
61136;BME280;47021;51.340;12.432;2023-04-06T01:11:32;100588.88;;;6.75;54.28
61136;BME280;47021;51.340;12.432;2023-04-06T01:14:04;100586.00;;;6.79;54.76
61136;BME280;47021;51.340;12.432;2023-04-06T01:16:31;100585.63;;;6.57;55.19
61136;BME280;47021;51.340;12.432;2023-04-06T01:19:11;100587.88;;;6.33;56.34
61136;BME280;47021;51.340;12.432;2023-04-06T01:21:42;100590.53;;;6.62;55.50
61136;BME280;47021;51.340;12.432;2023-04-06T01:24:20;100582.06;;;6.58;55.65
61136;BME280;47021;51.340;12.432;2023-04-06T01:26:45;100583.91;;;6.42;55.92
61136;BME280;47021;51.340;12.432;2023-04-06T01:29:11;100584.00;;;6.40;56.61
61136;BME280;47021;51.340;12.432;2023-04-06T01:31:45;100579.94;;;6.65;55.70
61136;BME280;47021;51.340;12.432;2023-04-06T01:34:22;100579.63;;;6.85;55.65
61136;BME280;47021;51.340;12.432;2023-04-06T01:36:47;100574.69;;;6.80;55.63
61136;BME280;47021;51.340;12.432;2023-04-06T01:39:20;100579.47;;;6.14;57.12
61136;BME280;47021;51.340;12.432;2023-04-06T01:42:04;100577.56;;;6.18;57.74
61136;BME280;47021;51.340;12.432;2023-04-06T01:44:29;100578.66;;;6.58;56.52
61136;BME280;47021;51.340;12.432;2023-04-06T01:46:54;100575.44;;;6.68;55.87
61136;BME280;47021;51.340;12.432;2023-04-06T01:52:03;100578.66;;;6.58;55.71
61136;BME280;47021;51.340;12.432;2023-04-06T01:54:31;100567.34;;;6.59;55.88
61136;BME280;47021;51.340;12.432;2023-04-06T02:02:23;100576.28;;;6.25;57.60
61136;BME280;47021;51.340;12.432;2023-04-06T02:04:50;100569.31;;;6.55;56.56
61136;BME280;47021;51.340;12.432;2023-04-06T02:07:16;100566.50;;;6.44;56.59
61136;BME280;47021;51.340;12.432;2023-04-06T02:12:22;100566.34;;;6.17;57.81
61136;BME280;47021;51.340;12.432;2023-04-06T02:14:47;100566.66;;;5.97;58.52
61136;BME280;47021;51.340;12.432;2023-04-06T02:17:28;100570.00;;;6.29;57.83
61136;BME280;47021;51.340;12.432;2023-04-06T02:20:05;100565.44;;;6.18;58.00
61136;BME280;47021;51.340;12.432;2023-04-06T02:22:38;100561.16;;;6.61;56.99
61136;BME280;47021;51.340;12.432;2023-04-06T02:25:04;100560.75;;;6.39;57.83
61136;BME280;47021;51.340;12.432;2023-04-06T02:30:13;100555.59;;;6.53;56.70
61136;BME280;47021;51.340;12.432;2023-04-06T02:32:55;100561.91;;;5.74;59.55
61136;BME280;47021;51.340;12.432;2023-04-06T02:35:29;100552.81;;;6.12;58.09
61136;BME280;47021;51.340;12.432;2023-04-06T02:38:01;100549.47;;;6.10;58.80
61136;BME280;47021;51.340;12.432;2023-04-06T02:40:28;100553.03;;;5.94;59.04
61136;BME280;47021;51.340;12.432;2023-04-06T02:42:53;100549.16;;;6.01;59.08
61136;BME280;47021;51.340;12.432;2023-04-06T02:50:53;100558.38;;;6.06;59.06
61136;BME280;47021;51.340;12.432;2023-04-06T02:53:33;100557.78;;;6.31;58.22
61136;BME280;47021;51.340;12.432;2023-04-06T02:58:42;100562.81;;;6.48;57.60
61136;BME280;47021;51.340;12.432;2023-04-06T03:01:07;100557.72;;;6.61;57.35
61136;BME280;47021;51.340;12.432;2023-04-06T03:03:40;100559.22;;;6.51;56.99
61136;BME280;47021;51.340;12.432;2023-04-06T03:06:05;100560.38;;;6.45;57.44
61136;BME280;47021;51.340;12.432;2023-04-06T03:08:30;100556.13;;;6.44;57.85
61136;BME280;47021;51.340;12.432;2023-04-06T03:13:39;100559.94;;;6.09;59.38
61136;BME280;47021;51.340;12.432;2023-04-06T03:16:10;100558.66;;;6.16;58.78
61136;BME280;47021;51.340;12.432;2023-04-06T03:21:19;100557.06;;;6.43;58.28
61136;BME280;47021;51.340;12.432;2023-04-06T03:26:41;100558.91;;;6.41;57.76
61136;BME280;47021;51.340;12.432;2023-04-06T03:29:08;100558.72;;;6.44;57.88
61136;BME280;47021;51.340;12.432;2023-04-06T03:31:33;100560.91;;;6.22;58.45
61136;BME280;47021;51.340;12.432;2023-04-06T03:34:00;100556.94;;;6.01;58.79
61136;BME280;47021;51.340;12.432;2023-04-06T03:36:31;100561.78;;;6.07;58.36
61136;BME280;47021;51.340;12.432;2023-04-06T03:44:21;100561.38;;;5.99;59.20
61136;BME280;47021;51.340;12.432;2023-04-06T03:46:46;100558.16;;;5.64;59.49
61136;BME280;47021;51.340;12.432;2023-04-06T03:49:17;100559.06;;;5.79;59.46
61136;BME280;47021;51.340;12.432;2023-04-06T03:51:42;100567.75;;;5.78;59.06
61136;BME280;47021;51.340;12.432;2023-04-06T03:54:16;100564.09;;;5.82;59.02
61136;BME280;47021;51.340;12.432;2023-04-06T03:56:43;100564.28;;;5.63;59.83
61136;BME280;47021;51.340;12.432;2023-04-06T03:59:09;100565.75;;;5.67;59.10
61136;BME280;47021;51.340;12.432;2023-04-06T04:01:35;100572.13;;;5.77;59.18
61136;BME280;47021;51.340;12.432;2023-04-06T04:06:44;100576.53;;;5.59;60.18
61136;BME280;47021;51.340;12.432;2023-04-06T04:09:17;100578.56;;;5.70;60.22
61136;BME280;47021;51.340;12.432;2023-04-06T04:19:53;100581.88;;;5.72;59.83
61136;BME280;47021;51.340;12.432;2023-04-06T04:22:25;100581.81;;;5.42;60.44
61136;BME280;47021;51.340;12.432;2023-04-06T04:24:51;100584.56;;;5.55;59.99
61136;BME280;47021;51.340;12.432;2023-04-06T04:27:25;100589.91;;;5.36;60.12
61136;BME280;47021;51.340;12.432;2023-04-06T04:30:01;100581.47;;;5.17;61.21
61136;BME280;47021;51.340;12.432;2023-04-06T04:32:32;100589.41;;;5.14;60.80
61136;BME280;47021;51.340;12.432;2023-04-06T04:35:00;100587.06;;;5.25;60.58
61136;BME280;47021;51.340;12.432;2023-04-06T04:37:26;100596.75;;;5.06;60.71
61136;BME280;47021;51.340;12.432;2023-04-06T04:39:58;100593.06;;;5.10;61.23
61136;BME280;47021;51.340;12.432;2023-04-06T04:42:31;100589.75;;;5.24;60.70
61136;BME280;47021;51.340;12.432;2023-04-06T04:44:56;100590.91;;;5.18;60.45
61136;BME280;47021;51.340;12.432;2023-04-06T04:47:30;100594.91;;;5.08;60.50
61136;BME280;47021;51.340;12.432;2023-04-06T04:50:01;100589.00;;;5.22;60.37
61136;BME280;47021;51.340;12.432;2023-04-06T04:52:28;100591.25;;;5.28;60.20
61136;BME280;47021;51.340;12.432;2023-04-06T04:54:53;100592.69;;;5.18;60.27
61136;BME280;47021;51.340;12.432;2023-04-06T05:00:08;100595.91;;;5.21;60.35
61136;BME280;47021;51.340;12.432;2023-04-06T05:02:34;100592.72;;;5.16;60.77
61136;BME280;47021;51.340;12.432;2023-04-06T05:04:59;100593.28;;;5.38;60.14
61136;BME280;47021;51.340;12.432;2023-04-06T05:10:08;100600.84;;;5.41;60.37
61136;BME280;47021;51.340;12.432;2023-04-06T05:12:42;100588.34;;;5.49;60.06
61136;BME280;47021;51.340;12.432;2023-04-06T05:15:09;100600.59;;;5.46;60.61
61136;BME280;47021;51.340;12.432;2023-04-06T05:17:34;100598.00;;;5.46;60.24
61136;BME280;47021;51.340;12.432;2023-04-06T05:20:01;100601.28;;;5.49;59.87
61136;BME280;47021;51.340;12.432;2023-04-06T05:22:33;100597.84;;;5.64;60.01
61136;BME280;47021;51.340;12.432;2023-04-06T05:27:34;100599.59;;;5.80;59.92
61136;BME280;47021;51.340;12.432;2023-04-06T05:32:47;100596.28;;;5.93;59.38
61136;BME280;47021;51.340;12.432;2023-04-06T05:35:14;100596.00;;;5.98;61.70
61136;BME280;47021;51.340;12.432;2023-04-06T05:40:36;100598.81;;;6.38;61.53
61136;BME280;47021;51.340;12.432;2023-04-06T05:43:03;100608.19;;;6.41;61.06
61136;BME280;47021;51.340;12.432;2023-04-06T05:45:28;100607.91;;;6.46;61.67
61136;BME280;47021;51.340;12.432;2023-04-06T05:50:37;100607.16;;;6.87;60.11
61136;BME280;47021;51.340;12.432;2023-04-06T05:53:03;100614.63;;;6.78;60.56
61136;BME280;47021;51.340;12.432;2023-04-06T05:55:30;100609.94;;;6.98;60.17
61136;BME280;47021;51.340;12.432;2023-04-06T05:57:56;100609.38;;;7.22;59.45
61136;BME280;47021;51.340;12.432;2023-04-06T06:00:21;100607.56;;;7.22;59.26
61136;BME280;47021;51.340;12.432;2023-04-06T06:02:46;100606.56;;;7.25;59.22
61136;BME280;47021;51.340;12.432;2023-04-06T06:05:13;100606.53;;;7.53;58.57
61136;BME280;47021;51.340;12.432;2023-04-06T06:07:53;100609.66;;;7.58;58.42
61136;BME280;47021;51.340;12.432;2023-04-06T06:10:18;100603.72;;;7.70;57.53
61136;BME280;47021;51.340;12.432;2023-04-06T06:12:43;100608.13;;;7.68;57.24
61136;BME280;47021;51.340;12.432;2023-04-06T06:20:37;100614.03;;;7.84;56.92
61136;BME280;47021;51.340;12.432;2023-04-06T06:23:04;100616.88;;;7.94;56.17
61136;BME280;47021;51.340;12.432;2023-04-06T06:25:30;100618.00;;;8.16;55.92
61136;BME280;47021;51.340;12.432;2023-04-06T06:30:40;100608.81;;;8.37;54.01
61136;BME280;47021;51.340;12.432;2023-04-06T06:33:11;100601.69;;;8.66;53.49
61136;BME280;47021;51.340;12.432;2023-04-06T06:35:36;100613.53;;;8.58;53.44
61136;BME280;47021;51.340;12.432;2023-04-06T06:38:03;100606.06;;;8.66;52.71
61136;BME280;47021;51.340;12.432;2023-04-06T06:40:29;100602.00;;;8.62;52.79
61136;BME280;47021;51.340;12.432;2023-04-06T06:42:54;100605.22;;;8.65;52.70
61136;BME280;47021;51.340;12.432;2023-04-06T06:45:26;100609.66;;;8.50;53.02
61136;BME280;47021;51.340;12.432;2023-04-06T06:47:51;100602.09;;;8.85;51.21
61136;BME280;47021;51.340;12.432;2023-04-06T06:53:00;100600.59;;;9.19;48.01
61136;BME280;47021;51.340;12.432;2023-04-06T06:55:25;100606.16;;;8.89;47.06
61136;BME280;47021;51.340;12.432;2023-04-06T07:00:26;100604.22;;;9.42;46.35
61136;BME280;47021;51.340;12.432;2023-04-06T07:02:57;100610.94;;;9.57;45.72
61136;BME280;47021;51.340;12.432;2023-04-06T07:05:34;100611.47;;;9.00;44.86
61136;BME280;47021;51.340;12.432;2023-04-06T07:08:00;100607.25;;;9.36;44.46
61136;BME280;47021;51.340;12.432;2023-04-06T07:10:32;100610.91;;;9.69;44.41
61136;BME280;47021;51.340;12.432;2023-04-06T07:13:12;100614.00;;;9.74;43.36
61136;BME280;47021;51.340;12.432;2023-04-06T07:15:39;100616.38;;;9.90;43.33
61136;BME280;47021;51.340;12.432;2023-04-06T07:20:38;100614.16;;;9.97;42.97
61136;BME280;47021;51.340;12.432;2023-04-06T07:23:04;100613.38;;;10.31;42.67
61136;BME280;47021;51.340;12.432;2023-04-06T07:25:31;100609.81;;;10.43;42.56
61136;BME280;47021;51.340;12.432;2023-04-06T07:28:02;100610.50;;;10.34;42.89
61136;BME280;47021;51.340;12.432;2023-04-06T07:30:28;100605.41;;;10.32;42.99
61136;BME280;47021;51.340;12.432;2023-04-06T07:32:54;100610.75;;;10.07;42.58
61136;BME280;47021;51.340;12.432;2023-04-06T07:35:22;100610.91;;;10.40;42.43
61136;BME280;47021;51.340;12.432;2023-04-06T07:37:49;100607.16;;;10.21;42.04
61136;BME280;47021;51.340;12.432;2023-04-06T07:40:16;100604.31;;;10.58;41.74
61136;BME280;47021;51.340;12.432;2023-04-06T07:42:54;100605.97;;;10.59;41.10
61136;BME280;47021;51.340;12.432;2023-04-06T07:45:19;100609.41;;;10.71;40.89
61136;BME280;47021;51.340;12.432;2023-04-06T07:47:46;100603.41;;;10.82;40.26
61136;BME280;47021;51.340;12.432;2023-04-06T07:50:12;100605.66;;;10.86;40.96
61136;BME280;47021;51.340;12.432;2023-04-06T07:52:38;100603.75;;;11.10;40.46
61136;BME280;47021;51.340;12.432;2023-04-06T07:55:09;100610.41;;;11.03;40.23
61136;BME280;47021;51.340;12.432;2023-04-06T07:57:40;100610.50;;;10.80;40.53
61136;BME280;47021;51.340;12.432;2023-04-06T08:00:12;100599.69;;;10.84;40.32
61136;BME280;47021;51.340;12.432;2023-04-06T08:02:39;100602.75;;;10.45;40.37
61136;BME280;47021;51.340;12.432;2023-04-06T08:05:16;100602.44;;;10.83;40.46
61136;BME280;47021;51.340;12.432;2023-04-06T08:07:44;100602.94;;;11.10;40.16
61136;BME280;47021;51.340;12.432;2023-04-06T08:10:11;100605.78;;;11.18;40.17
61136;BME280;47021;51.340;12.432;2023-04-06T08:12:45;100604.09;;;11.28;39.77
61136;BME280;47021;51.340;12.432;2023-04-06T08:15:10;100599.59;;;11.19;39.37
61136;BME280;47021;51.340;12.432;2023-04-06T08:17:35;100598.53;;;11.44;38.75
61136;BME280;47021;51.340;12.432;2023-04-06T08:22:57;100603.88;;;11.31;39.04
61136;BME280;47021;51.340;12.432;2023-04-06T08:25:35;100608.06;;;11.22;39.55
61136;BME280;47021;51.340;12.432;2023-04-06T08:28:00;100605.31;;;10.91;40.47
61136;BME280;47021;51.340;12.432;2023-04-06T08:30:26;100610.66;;;11.22;39.46
61136;BME280;47021;51.340;12.432;2023-04-06T08:32:52;100595.41;;;11.50;38.29
61136;BME280;47021;51.340;12.432;2023-04-06T08:35:23;100599.59;;;11.41;39.27
61136;BME280;47021;51.340;12.432;2023-04-06T08:37:48;100600.75;;;11.59;39.43
61136;BME280;47021;51.340;12.432;2023-04-06T08:40:27;100599.19;;;11.79;38.69
61136;BME280;47021;51.340;12.432;2023-04-06T08:45:38;100587.91;;;12.31;37.84
61136;BME280;47021;51.340;12.432;2023-04-06T08:48:09;100594.78;;;12.11;38.34
61136;BME280;47021;51.340;12.432;2023-04-06T08:50:37;100588.47;;;12.14;37.86
61136;BME280;47021;51.340;12.432;2023-04-06T08:58:09;100586.88;;;12.43;38.20
61136;BME280;47021;51.340;12.432;2023-04-06T09:00:40;100594.50;;;12.66;37.77
61136;BME280;47021;51.340;12.432;2023-04-06T09:03:06;100587.63;;;12.75;36.79
61136;BME280;47021;51.340;12.432;2023-04-06T09:05:32;100595.72;;;12.93;36.44
61136;BME280;47021;51.340;12.432;2023-04-06T09:07:59;100584.44;;;12.92;35.53
61136;BME280;47021;51.340;12.432;2023-04-06T09:10:31;100591.72;;;12.89;36.87
61136;BME280;47021;51.340;12.432;2023-04-06T09:13:07;100585.41;;;12.70;36.31
61136;BME280;47021;51.340;12.432;2023-04-06T09:15:39;100589.22;;;13.08;35.43
61136;BME280;47021;51.340;12.432;2023-04-06T09:18:27;100586.75;;;13.16;35.73
61136;BME280;47021;51.340;12.432;2023-04-06T09:21:10;100587.28;;;13.10;35.84
61136;BME280;47021;51.340;12.432;2023-04-06T09:23:42;100578.00;;;12.75;36.25
61136;BME280;47021;51.340;12.432;2023-04-06T09:26:08;100570.63;;;13.11;36.05
61136;BME280;47021;51.340;12.432;2023-04-06T09:31:15;100571.25;;;13.33;35.08
61136;BME280;47021;51.340;12.432;2023-04-06T09:33:44;100566.19;;;13.61;34.88
61136;BME280;47021;51.340;12.432;2023-04-06T09:36:17;100569.38;;;13.74;34.79
61136;BME280;47021;51.340;12.432;2023-04-06T09:38:56;100572.84;;;13.74;34.96
61136;BME280;47021;51.340;12.432;2023-04-06T09:46:45;100563.59;;;13.70;33.31
61136;BME280;47021;51.340;12.432;2023-04-06T09:49:22;100560.41;;;13.76;33.49
61136;BME280;47021;51.340;12.432;2023-04-06T09:54:22;100557.38;;;14.00;33.20
61136;BME280;47021;51.340;12.432;2023-04-06T09:56:56;100556.66;;;13.69;33.26
61136;BME280;47021;51.340;12.432;2023-04-06T09:59:31;100559.56;;;13.85;34.79
61136;BME280;47021;51.340;12.432;2023-04-06T10:01:58;100559.00;;;13.91;31.40
61136;BME280;47021;51.340;12.432;2023-04-06T10:04:29;100554.81;;;13.41;30.85
61136;BME280;47021;51.340;12.432;2023-04-06T10:07:01;100558.75;;;14.13;30.82
61136;BME280;47021;51.340;12.432;2023-04-06T10:09:28;100553.50;;;14.89;30.46
61136;BME280;47021;51.340;12.432;2023-04-06T10:11:53;100548.28;;;15.33;30.30
61136;BME280;47021;51.340;12.432;2023-04-06T10:14:19;100553.63;;;14.22;30.45
61136;BME280;47021;51.340;12.432;2023-04-06T10:16:46;100554.03;;;14.27;30.41
61136;BME280;47021;51.340;12.432;2023-04-06T10:19:21;100553.56;;;15.61;29.09
61136;BME280;47021;51.340;12.432;2023-04-06T10:21:50;100549.88;;;15.53;28.86
61136;BME280;47021;51.340;12.432;2023-04-06T10:24:18;100553.72;;;15.32;28.10
61136;BME280;47021;51.340;12.432;2023-04-06T10:26:56;100547.94;;;15.73;29.81
61136;BME280;47021;51.340;12.432;2023-04-06T10:29:40;100544.50;;;15.90;29.11
61136;BME280;47021;51.340;12.432;2023-04-06T10:32:05;100538.84;;;15.85;30.25
61136;BME280;47021;51.340;12.432;2023-04-06T10:37:28;100538.44;;;15.98;28.70
61136;BME280;47021;51.340;12.432;2023-04-06T10:42:43;100535.06;;;15.70;28.34
61136;BME280;47021;51.340;12.432;2023-04-06T10:47:58;100527.41;;;16.38;28.95
61136;BME280;47021;51.340;12.432;2023-04-06T10:50:31;100522.13;;;16.38;28.02
61136;BME280;47021;51.340;12.432;2023-04-06T10:52:59;100518.63;;;16.80;27.80
61136;BME280;47021;51.340;12.432;2023-04-06T10:55:32;100514.34;;;16.54;28.29
61136;BME280;47021;51.340;12.432;2023-04-06T10:57:58;100525.97;;;15.65;28.34
61136;BME280;47021;51.340;12.432;2023-04-06T11:00:36;100520.03;;;15.63;28.77
61136;BME280;47021;51.340;12.432;2023-04-06T11:03:09;100514.56;;;16.17;28.88
61136;BME280;47021;51.340;12.432;2023-04-06T11:05:36;100508.06;;;16.29;28.46
61136;BME280;47021;51.340;12.432;2023-04-06T11:11:03;100517.16;;;15.74;29.91
61136;BME280;47021;51.340;12.432;2023-04-06T11:13:39;100502.41;;;15.98;28.33
61136;BME280;47021;51.340;12.432;2023-04-06T11:16:15;100498.50;;;15.85;28.03
61136;BME280;47021;51.340;12.432;2023-04-06T11:21:19;100498.56;;;16.36;28.41
61136;BME280;47021;51.340;12.432;2023-04-06T11:23:51;100491.94;;;16.32;28.23
61136;BME280;47021;51.340;12.432;2023-04-06T11:26:18;100492.88;;;16.74;26.95
61136;BME280;47021;51.340;12.432;2023-04-06T11:28:52;100493.69;;;16.49;28.55
61136;BME280;47021;51.340;12.432;2023-04-06T11:31:27;100500.59;;;16.68;26.56
61136;BME280;47021;51.340;12.432;2023-04-06T11:36:27;100499.56;;;16.61;27.28
61136;BME280;47021;51.340;12.432;2023-04-06T11:38:52;100492.72;;;17.10;26.79
61136;BME280;47021;51.340;12.432;2023-04-06T11:44:03;100491.09;;;16.06;27.40
61136;BME280;47021;51.340;12.432;2023-04-06T11:51:57;100488.75;;;17.22;26.83
61136;BME280;47021;51.340;12.432;2023-04-06T11:54:34;100485.28;;;17.05;26.47
61136;BME280;47021;51.340;12.432;2023-04-06T11:57:01;100482.16;;;17.10;25.96
61136;BME280;47021;51.340;12.432;2023-04-06T11:59:43;100478.84;;;16.48;25.97
61136;BME280;47021;51.340;12.432;2023-04-06T12:02:08;100478.81;;;16.40;25.34
61136;BME280;47021;51.340;12.432;2023-04-06T12:04:39;100475.94;;;15.82;27.22
61136;BME280;47021;51.340;12.432;2023-04-06T12:07:05;100472.28;;;16.01;27.33
61136;BME280;47021;51.340;12.432;2023-04-06T12:09:42;100472.31;;;16.86;27.96
61136;BME280;47021;51.340;12.432;2023-04-06T12:12:07;100470.16;;;17.23;25.77
61136;BME280;47021;51.340;12.432;2023-04-06T12:14:33;100457.34;;;16.86;24.50
61136;BME280;47021;51.340;12.432;2023-04-06T12:17:04;100456.25;;;16.71;26.30
61136;BME280;47021;51.340;12.432;2023-04-06T12:19:30;100459.91;;;16.70;26.59
61136;BME280;47021;51.340;12.432;2023-04-06T12:22:03;100460.28;;;16.91;26.28
61136;BME280;47021;51.340;12.432;2023-04-06T12:24:44;100452.97;;;17.19;27.08
61136;BME280;47021;51.340;12.432;2023-04-06T12:27:10;100448.78;;;17.67;26.00
61136;BME280;47021;51.340;12.432;2023-04-06T12:29:36;100450.84;;;17.23;25.96
61136;BME280;47021;51.340;12.432;2023-04-06T12:32:03;100454.84;;;16.85;24.95
61136;BME280;47021;51.340;12.432;2023-04-06T12:34:31;100447.31;;;16.56;25.71
61136;BME280;47021;51.340;12.432;2023-04-06T12:36:56;100439.19;;;16.24;26.45
61136;BME280;47021;51.340;12.432;2023-04-06T12:39:23;100444.84;;;16.63;25.94
61136;BME280;47021;51.340;12.432;2023-04-06T12:44:23;100431.28;;;17.74;25.34
61136;BME280;47021;51.340;12.432;2023-04-06T12:47:06;100429.44;;;17.58;25.93
61136;BME280;47021;51.340;12.432;2023-04-06T12:52:08;100429.56;;;17.32;25.12
61136;BME280;47021;51.340;12.432;2023-04-06T12:54:52;100420.34;;;17.93;26.11
61136;BME280;47021;51.340;12.432;2023-04-06T12:57:17;100418.22;;;18.59;24.42
61136;BME280;47021;51.340;12.432;2023-04-06T12:59:47;100421.84;;;17.79;24.51
61136;BME280;47021;51.340;12.432;2023-04-06T13:02:12;100409.16;;;17.83;25.08
61136;BME280;47021;51.340;12.432;2023-04-06T13:10:07;100407.97;;;17.93;25.33
61136;BME280;47021;51.340;12.432;2023-04-06T13:12:33;100410.69;;;18.40;24.67
61136;BME280;47021;51.340;12.432;2023-04-06T13:14:58;100418.22;;;17.72;26.19
61136;BME280;47021;51.340;12.432;2023-04-06T13:17:23;100417.41;;;17.80;25.49
61136;BME280;47021;51.340;12.432;2023-04-06T13:19:50;100424.63;;;17.29;26.51
61136;BME280;47021;51.340;12.432;2023-04-06T13:22:16;100412.63;;;17.75;26.26
61136;BME280;47021;51.340;12.432;2023-04-06T13:24:43;100409.28;;;17.41;27.11
61136;BME280;47021;51.340;12.432;2023-04-06T13:27:08;100411.91;;;16.67;26.41
61136;BME280;47021;51.340;12.432;2023-04-06T13:32:24;100405.19;;;16.72;27.16
61136;BME280;47021;51.340;12.432;2023-04-06T13:34:56;100398.66;;;17.01;25.90
61136;BME280;47021;51.340;12.432;2023-04-06T13:40:13;100396.91;;;16.67;25.91
61136;BME280;47021;51.340;12.432;2023-04-06T13:45:22;100394.28;;;17.41;24.56
61136;BME280;47021;51.340;12.432;2023-04-06T13:47:53;100395.81;;;17.60;25.44
61136;BME280;47021;51.340;12.432;2023-04-06T13:50:33;100391.78;;;17.88;24.46
61136;BME280;47021;51.340;12.432;2023-04-06T13:52:59;100397.50;;;18.24;25.36
61136;BME280;47021;51.340;12.432;2023-04-06T13:55:24;100397.56;;;18.08;24.47
61136;BME280;47021;51.340;12.432;2023-04-06T13:57:50;100399.25;;;16.78;24.39
61136;BME280;47021;51.340;12.432;2023-04-06T14:02:59;100389.66;;;17.84;24.48
61136;BME280;47021;51.340;12.432;2023-04-06T14:05:31;100384.16;;;18.17;25.72
61136;BME280;47021;51.340;12.432;2023-04-06T14:08:03;100389.78;;;18.06;25.37
61136;BME280;47021;51.340;12.432;2023-04-06T14:10:29;100387.50;;;17.95;24.42
61136;BME280;47021;51.340;12.432;2023-04-06T14:12:54;100388.44;;;18.18;24.25
61136;BME280;47021;51.340;12.432;2023-04-06T14:17:53;100376.69;;;18.21;23.92
61136;BME280;47021;51.340;12.432;2023-04-06T14:20:19;100370.31;;;18.85;24.16
61136;BME280;47021;51.340;12.432;2023-04-06T14:22:46;100372.75;;;18.64;23.78
61136;BME280;47021;51.340;12.432;2023-04-06T14:25:13;100378.47;;;18.75;24.36
61136;BME280;47021;51.340;12.432;2023-04-06T14:27:38;100375.19;;;18.73;23.48
61136;BME280;47021;51.340;12.432;2023-04-06T14:30:03;100382.44;;;18.32;24.81
61136;BME280;47021;51.340;12.432;2023-04-06T14:32:30;100373.25;;;18.67;24.43
61136;BME280;47021;51.340;12.432;2023-04-06T14:35:01;100373.47;;;18.50;24.34
61136;BME280;47021;51.340;12.432;2023-04-06T14:37:27;100368.53;;;18.77;23.78
61136;BME280;47021;51.340;12.432;2023-04-06T14:39:53;100371.16;;;18.85;23.35
61136;BME280;47021;51.340;12.432;2023-04-06T14:45:03;100372.94;;;18.07;25.48
61136;BME280;47021;51.340;12.432;2023-04-06T14:47:28;100369.00;;;18.50;25.27
61136;BME280;47021;51.340;12.432;2023-04-06T14:49:53;100368.69;;;17.50;26.98
61136;BME280;47021;51.340;12.432;2023-04-06T14:52:18;100373.72;;;16.87;27.16
61136;BME280;47021;51.340;12.432;2023-04-06T14:54:44;100358.97;;;17.58;26.36
61136;BME280;47021;51.340;12.432;2023-04-06T14:57:09;100359.47;;;17.78;24.84
61136;BME280;47021;51.340;12.432;2023-04-06T14:59:53;100357.47;;;17.32;27.05
61136;BME280;47021;51.340;12.432;2023-04-06T15:02:18;100350.66;;;17.94;25.93
61136;BME280;47021;51.340;12.432;2023-04-06T15:04:55;100356.19;;;17.52;26.29
61136;BME280;47021;51.340;12.432;2023-04-06T15:07:32;100355.50;;;17.50;26.57
61136;BME280;47021;51.340;12.432;2023-04-06T15:10:04;100362.25;;;17.85;26.70
61136;BME280;47021;51.340;12.432;2023-04-06T15:12:35;100353.50;;;17.36;26.30
61136;BME280;47021;51.340;12.432;2023-04-06T15:17:44;100350.69;;;17.37;26.86
61136;BME280;47021;51.340;12.432;2023-04-06T15:20:10;100348.34;;;17.99;26.88
61136;BME280;47021;51.340;12.432;2023-04-06T15:22:42;100354.50;;;17.75;25.49
61136;BME280;47021;51.340;12.432;2023-04-06T15:25:09;100350.88;;;17.68;26.26
61136;BME280;47021;51.340;12.432;2023-04-06T15:27:42;100349.25;;;17.59;26.05
61136;BME280;47021;51.340;12.432;2023-04-06T15:30:19;100353.16;;;17.79;26.84
61136;BME280;47021;51.340;12.432;2023-04-06T15:32:58;100356.50;;;17.73;26.94
61136;BME280;47021;51.340;12.432;2023-04-06T15:35:24;100351.38;;;17.63;24.66
61136;BME280;47021;51.340;12.432;2023-04-06T15:38:04;100350.38;;;17.32;25.88
61136;BME280;47021;51.340;12.432;2023-04-06T15:40:41;100350.50;;;16.49;26.26